You are not logged in, Click here to log in
那覇空港OKA / ROAH 日本沖繩縣那霸市
ICAO: ROAH Country: 日本沖繩縣那霸市
Latitude: 26.2064 Longitude: 127.647
Total Arrivals: 283 Total Departures: 262
Latest Arrival: B7282 (RCMQ-ROAH)Deven. Chu Latest Departure: CI121 (ROAH-RCTP)CHU. CHUHAO
Scenery:
METAR : ROAH 190330Z 01011KT 9999 FEW040 BKN070 18/07 Q1025 RMK 1SC040 7AC070 A3029

那覇空港OKA

You are accessing this site from IP address 35.175.113.29. Virtual Airline. CMS by phpVMS.Website designed by Zumeweb and edited by Theo Bearman.
There is 0 User(s) Online: | and 8 Guest(s) Online.
All information on this site is for fight simulation purposes only. This site is for flight logging for pilots of Virtual Airline&模擬飛行論壇 FlySim only.